Time;durP1;ratioP1;P1;durP2;ratioP2;P2;SDS_P1;SDS_P2;PMS_P1;PMS_P2;Temp;Humidity;BMP_temperature;BMP_pressure;BME280_temperature;BME280_humidity;BME280_pressure;Samples;Min_cycle;Max_cycle;Signal;HPM_P1;HPM_P2
2022/09/27 00:00:04;;;;;;;4.97;3.22;;;10.20;99.90;;;;;;5090279;28;20075;-47
2022/09/27 00:02:37;;;;;;;9.68;4.05;;;10.10;99.90;;;;;;5090975;28;20056;-48
2022/09/27 00:05:04;;;;;;;10.18;4.38;;;10.00;99.90;;;;;;5081873;28;20036;-47
2022/09/27 00:07:31;;;;;;;10.77;3.67;;;10.10;99.90;;;;;;5087640;28;20124;-48
2022/09/27 00:09:58;;;;;;;7.00;3.97;;;10.10;99.90;;;;;;5086916;28;20123;-47
2022/09/27 00:12:25;;;;;;;7.25;3.53;;;10.00;99.90;;;;;;5092812;28;20044;-47
2022/09/27 00:14:51;;;;;;;4.43;2.40;;;10.10;99.90;;;;;;5093330;28;20114;-47
2022/09/27 00:17:18;;;;;;;5.35;2.45;;;10.10;99.90;;;;;;5092772;28;20558;-47
2022/09/27 00:19:45;;;;;;;3.38;2.38;;;10.10;99.90;;;;;;5076849;28;20527;-49
2022/09/27 00:22:11;;;;;;;4.70;2.80;;;10.10;99.90;;;;;;5094418;28;20032;-47
2022/09/27 00:24:38;;;;;;;6.70;2.53;;;10.00;99.90;;;;;;5109409;28;20357;-48
2022/09/27 00:27:05;;;;;;;4.00;1.92;;;10.00;99.90;;;;;;5093631;28;20123;-47
2022/09/27 00:29:31;;;;;;;3.03;1.98;;;10.00;99.90;;;;;;5070494;28;20071;-50
2022/09/27 00:31:58;;;;;;;3.28;1.70;;;10.00;99.90;;;;;;5089496;28;20090;-48
2022/09/27 00:34:25;;;;;;;3.00;1.90;;;10.00;99.90;;;;;;5092971;28;20044;-48
2022/09/27 00:36:52;;;;;;;8.07;1.60;;;10.00;99.90;;;;;;5075949;28;20449;-47
2022/09/27 00:39:19;;;;;;;3.33;1.80;;;10.00;99.90;;;;;;5089470;28;20458;-47
2022/09/27 00:41:46;;;;;;;;;;;10.00;99.90;;;;;;5083162;28;20051;-47
2022/09/27 00:44:25;;;;;;;4.63;1.60;;;10.10;99.90;;;;;;5075627;28;19954;-47
2022/09/27 00:47:02;;;;;;;2.95;2.00;;;10.10;99.90;;;;;;5075529;28;20040;-47
2022/09/27 00:49:35;;;;;;;3.58;2.05;;;10.10;99.90;;;;;;5093877;28;20056;-48
2022/09/27 00:52:12;;;;;;;4.32;1.88;;;10.10;99.90;;;;;;5083640;28;20083;-47
2022/09/27 00:54:43;;;;;;;3.23;1.80;;;10.10;99.90;;;;;;5074137;28;20569;-48
2022/09/27 00:57:10;;;;;;;2.72;1.80;;;10.10;99.90;;;;;;5092514;28;20044;-49
2022/09/27 00:59:48;;;;;;;2.33;1.80;;;10.10;99.90;;;;;;5087171;28;20060;-47
2022/09/27 01:02:15;;;;;;;3.78;2.17;;;10.00;99.90;;;;;;5074148;28;20044;-48
2022/09/27 01:04:43;;;;;;;3.20;2.20;;;10.10;99.90;;;;;;5074669;28;20131;-47
2022/09/27 01:07:10;;;;;;;4.55;1.83;;;10.00;99.90;;;;;;5074623;28;20074;-48
2022/09/27 01:09:38;;;;;;;3.75;2.30;;;10.00;99.90;;;;;;5071248;28;20048;-47
2022/09/27 01:12:43;;;;;;;4.75;2.40;;;10.00;99.90;;;;;;5075536;28;20534;-47
2022/09/27 01:15:35;;;;;;;2.65;2.00;;;10.00;99.90;;;;;;5091458;28;20044;-47
2022/09/27 01:18:14;;;;;;;5.03;2.35;;;9.90;99.90;;;;;;5093585;28;20105;-47
2022/09/27 01:21:18;;;;;;;5.45;3.05;;;9.90;99.90;;;;;;5092210;28;20085;-47
2022/09/27 01:24:10;;;;;;;4.57;2.92;;;9.90;99.90;;;;;;5071253;28;20106;-47
2022/09/27 01:27:25;;;;;;;5.60;3.67;;;9.90;99.90;;;;;;5067448;28;20062;-51
2022/09/27 01:30:15;;;;;;;5.65;3.47;;;9.90;99.90;;;;;;5093361;28;20093;-48
2022/09/27 01:33:13;;;;;;;5.18;3.40;;;10.00;99.90;;;;;;5075277;28;20040;-47
2022/09/27 01:36:05;;;;;;;6.72;3.22;;;10.00;99.90;;;;;;5077367;28;20078;-50
2022/09/27 01:38:56;;;;;;;6.00;3.40;;;10.00;99.90;;;;;;5057737;28;20541;-47
2022/09/27 01:41:42;;;;;;;5.05;3.20;;;10.00;99.90;;;;;;5074714;28;20048;-52
2022/09/27 01:44:19;;;;;;;4.38;2.88;;;10.00;99.90;;;;;;5091250;28;20040;-48
2022/09/27 01:47:03;;;;;;;4.13;2.80;;;9.90;99.90;;;;;;5088013;28;20135;-48
2022/09/27 01:49:54;;;;;;;4.72;2.63;;;9.90;99.90;;;;;;5074918;28;20052;-48
2022/09/27 01:52:28;;;;;;;7.05;3.30;;;10.00;99.90;;;;;;5087924;28;20051;-46
2022/09/27 01:54:59;;;;;;;5.03;3.15;;;9.90;99.90;;;;;;5062109;28;20052;-46
2022/09/27 01:57:41;;;;;;;6.32;3.20;;;9.90;99.90;;;;;;5095061;22;20546;-48
2022/09/27 02:00:16;;;;;;;4.80;2.80;;;9.90;99.90;;;;;;5088073;28;20051;-46
2022/09/27 02:02:51;;;;;;;3.58;2.60;;;9.90;99.90;;;;;;5120383;27;20127;-47
2022/09/27 02:05:34;;;;;;;3.83;2.30;;;9.90;99.90;;;;;;5123575;27;20050;-48
2022/09/27 02:08:44;;;;;;;3.33;2.40;;;9.90;99.90;;;;;;5077170;28;20079;-48
2022/09/27 02:11:21;;;;;;;5.15;2.60;;;9.90;99.90;;;;;;5086225;28;20282;-46
2022/09/27 02:14:12;;;;;;;11.10;3.55;;;9.90;99.90;;;;;;5099948;28;20055;-48
2022/09/27 02:16:50;;;;;;;5.47;3.20;;;9.90;99.90;;;;;;5093885;28;20040;-46
2022/09/27 02:19:28;;;;;;;6.40;3.25;;;9.90;99.90;;;;;;5109316;28;20063;-47
2022/09/27 02:22:17;;;;;;;4.70;3.22;;;9.90;99.90;;;;;;5089337;28;20499;-47
2022/09/27 02:24:52;;;;;;;8.05;3.60;;;9.90;99.90;;;;;;5093864;28;20100;-46
2022/09/27 02:27:27;;;;;;;8.55;3.72;;;9.90;99.90;;;;;;5093881;28;20063;-46
2022/09/27 02:30:03;;;;;;;7.13;3.88;;;9.90;99.90;;;;;;5086152;28;20055;-47
2022/09/27 02:32:31;;;;;;;5.25;3.30;;;9.90;99.90;;;;;;5096978;27;20039;-46
2022/09/27 02:35:04;;;;;;;9.15;3.58;;;9.90;99.90;;;;;;5108046;28;20061;-47
2022/09/27 02:37:32;;;;;;;7.72;3.75;;;9.90;99.90;;;;;;5089931;28;20574;-46
2022/09/27 02:39:59;;;;;;;5.57;3.35;;;9.90;99.90;;;;;;5080218;28;20043;-46
2022/09/27 02:42:27;;;;;;;5.78;3.30;;;9.90;99.90;;;;;;5111103;28;20036;-46
2022/09/27 02:44:54;;;;;;;5.22;3.25;;;9.90;99.90;;;;;;5093823;28;20040;-47
2022/09/27 02:47:42;;;;;;;5.05;2.63;;;9.90;99.90;;;;;;5092626;28;20470;-46
2022/09/27 02:50:28;;;;;;;;;;;9.90;99.90;;;;;;5094295;28;20468;-46
2022/09/27 02:53:40;;;;;;;3.03;1.67;;;9.90;99.90;;;;;;5091405;28;19931;-46
2022/09/27 02:56:53;;;;;;;5.97;1.95;;;9.90;99.90;;;;;;5090634;28;20097;-46
2022/09/27 03:00:04;;;;;;;3.03;1.70;;;9.80;99.90;;;;;;5091102;28;20047;-46
2022/09/27 03:03:16;;;;;;;3.38;1.70;;;9.80;99.90;;;;;;5078762;28;20059;-46
2022/09/27 03:05:58;;;;;;;2.80;1.30;;;9.80;99.90;;;;;;5092453;28;20415;-49
2022/09/27 03:08:25;;;;;;;1.90;1.45;;;9.80;99.90;;;;;;5089622;28;20039;-46
2022/09/27 03:10:52;;;;;;;3.60;1.65;;;9.80;99.90;;;;;;5092915;28;20066;-46
2022/09/27 03:13:19;;;;;;;4.35;1.63;;;9.80;99.90;;;;;;5092432;28;20568;-47
2022/09/27 03:15:45;;;;;;;3.70;1.42;;;9.70;99.90;;;;;;5092388;28;20051;-47
2022/09/27 03:18:32;;;;;;;3.90;2.05;;;9.70;99.90;;;;;;5111965;28;20132;-46
2022/09/27 03:21:17;;;;;;;6.20;2.60;;;9.70;99.90;;;;;;5111004;28;20042;-46
2022/09/27 03:23:45;;;;;;;6.60;2.80;;;9.70;99.90;;;;;;5093027;28;20036;-46
2022/09/27 03:26:12;;;;;;;3.33;2.40;;;9.70;99.90;;;;;;5081755;28;20044;-46
2022/09/27 03:28:39;;;;;;;2.92;2.25;;;9.60;99.90;;;;;;5092240;28;20044;-46
2022/09/27 03:31:06;;;;;;;3.47;2.30;;;9.60;99.90;;;;;;5092837;28;20061;-47
2022/09/27 03:33:44;;;;;;;4.10;2.55;;;9.60;99.90;;;;;;5092113;28;20051;-46
2022/09/27 03:36:11;;;;;;;;;;;9.60;99.90;;;;;;5078650;28;20047;-46
2022/09/27 03:38:38;;;;;;;5.40;2.67;;;9.60;99.90;;;;;;5101665;28;20018;-46
2022/09/27 03:41:08;;;;;;;4.25;2.67;;;9.60;99.90;;;;;;5092778;28;20043;-47
2022/09/27 03:43:36;;;;;;;;;;;9.60;99.90;;;;;;5091295;28;20392;-47
2022/09/27 03:46:03;;;;;;;4.63;2.90;;;9.70;99.90;;;;;;5095159;28;20295;-48
2022/09/27 03:48:30;;;;;;;9.20;3.05;;;9.60;99.90;;;;;;5094719;28;20040;-46
2022/09/27 03:50:57;;;;;;;4.97;3.20;;;9.60;99.90;;;;;;5094149;28;20121;-47
2022/09/27 03:53:24;;;;;;;7.15;3.33;;;9.70;99.90;;;;;;5090649;28;20040;-46
2022/09/27 03:55:51;;;;;;;7.55;3.08;;;9.70;99.90;;;;;;5085205;28;20044;-46
2022/09/27 03:58:18;;;;;;;9.02;4.63;;;9.70;99.90;;;;;;5095639;28;20051;-46
2022/09/27 04:00:45;;;;;;;14.20;7.30;;;9.60;99.90;;;;;;5095042;28;20404;-47
2022/09/27 04:03:13;;;;;;;10.50;5.70;;;9.70;99.90;;;;;;5096486;28;20047;-46
2022/09/27 04:06:03;;;;;;;7.13;4.10;;;9.60;99.90;;;;;;5118424;27;20526;-46
2022/09/27 04:08:36;;;;;;;6.72;3.78;;;9.70;99.90;;;;;;5086771;28;20046;-46
2022/09/27 04:11:05;;;;;;;16.17;5.28;;;9.70;99.90;;;;;;5081881;28;20134;-46
2022/09/27 04:13:32;;;;;;;9.45;4.90;;;9.70;99.90;;;;;;5086226;28;20047;-46
2022/09/27 04:15:59;;;;;;;8.75;4.10;;;9.70;99.90;;;;;;5091465;28;20044;-46
2022/09/27 04:18:45;;;;;;;7.05;3.55;;;9.70;99.90;;;;;;5108216;28;20112;-46
2022/09/27 04:21:40;;;;;;;6.97;4.10;;;9.70;99.90;;;;;;5089146;28;20415;-46
2022/09/27 04:24:10;;;;;;;6.65;4.05;;;9.70;99.90;;;;;;5086706;28;20048;-47
2022/09/27 04:26:38;;;;;;;6.80;3.95;;;9.60;99.90;;;;;;5085728;28;20151;-46
2022/09/27 04:29:11;;;;;;;7.10;4.45;;;9.60;99.90;;;;;;5091813;28;20044;-46
2022/09/27 04:31:42;;;;;;;10.68;5.00;;;9.60;99.90;;;;;;5083475;28;20050;-46
2022/09/27 04:37:31;;;;;;;5.38;3.78;;;9.50;99.90;;;;;;5106203;28;20039;-46
2022/09/27 04:40:02;;;;;;;5.95;3.58;;;9.50;99.90;;;;;;5092920;28;20032;-48
2022/09/27 04:42:32;;;;;;;6.65;3.58;;;9.40;99.90;;;;;;5093960;28;20035;-47
2022/09/27 04:44:59;;;;;;;;;;;9.40;99.90;;;;;;5095521;28;20089;-46
2022/09/27 04:47:26;;;;;;;4.13;3.03;;;9.50;99.90;;;;;;5092372;28;19939;-50
2022/09/27 04:49:52;;;;;;;3.20;2.30;;;9.40;99.90;;;;;;5092079;28;20584;-48
2022/09/27 04:52:19;;;;;;;7.05;3.40;;;9.40;99.90;;;;;;5113653;28;20028;-48
2022/09/27 04:54:46;;;;;;;8.05;4.25;;;9.30;99.90;;;;;;5112780;28;20043;-46
2022/09/27 04:57:13;;;;;;;3.97;2.78;;;9.30;99.90;;;;;;5106704;28;20088;-47
2022/09/27 04:59:41;;;;;;;4.03;2.45;;;9.30;99.90;;;;;;5092965;28;20565;-47
2022/09/27 05:02:08;;;;;;;4.72;2.75;;;9.30;99.90;;;;;;5095014;28;20412;-48
2022/09/27 05:04:57;;;;;;;4.28;2.53;;;9.30;99.90;;;;;;5107772;28;20078;-46
2022/09/27 05:07:27;;;;;;;6.55;3.30;;;9.20;99.90;;;;;;5094321;28;20048;-48
2022/09/27 05:10:00;;;;;;;9.75;4.50;;;9.20;99.90;;;;;;5092833;28;20040;-46
2022/09/27 05:12:27;;;;;;;6.55;3.03;;;9.30;99.90;;;;;;5094567;28;20085;-47
2022/09/27 05:14:57;;;;;;;5.82;2.80;;;9.30;99.90;;;;;;5105407;28;20127;-46
2022/09/27 05:17:39;;;;;;;3.35;2.22;;;9.30;99.90;;;;;;5109021;28;20052;-46
2022/09/27 05:20:24;;;;;;;3.08;1.73;;;9.30;99.90;;;;;;5096192;28;20090;-46
2022/09/27 05:23:03;;;;;;;4.20;2.35;;;9.40;99.90;;;;;;5082409;28;20100;-46
2022/09/27 05:25:31;;;;;;;4.78;2.47;;;9.50;99.90;;;;;;5089600;28;20040;-47
2022/09/27 05:27:58;;;;;;;4.03;2.20;;;9.50;99.90;;;;;;5078424;28;20500;-46
2022/09/27 05:30:26;;;;;;;4.57;2.60;;;9.50;99.90;;;;;;5092339;28;20082;-46
2022/09/27 05:33:04;;;;;;;3.47;1.90;;;9.50;99.90;;;;;;5085225;28;20052;-47
2022/09/27 05:35:56;;;;;;;1.98;1.40;;;9.50;99.90;;;;;;5111694;28;20047;-47
2022/09/27 05:38:28;;;;;;;3.15;1.50;;;9.50;99.90;;;;;;5092929;27;20526;-46
2022/09/27 05:40:58;;;;;;;5.13;1.98;;;9.40;99.90;;;;;;5078587;28;20048;-46
2022/09/27 05:43:25;;;;;;;3.85;1.92;;;9.40;99.90;;;;;;5083069;28;20055;-47
2022/09/27 05:45:52;;;;;;;2.50;1.67;;;9.30;99.90;;;;;;5094423;28;20056;-46
2022/09/27 05:48:21;;;;;;;2.42;1.88;;;9.40;99.90;;;;;;5107373;28;20472;-49
2022/09/27 05:54:33;;;;;;;2.65;1.50;;;9.40;99.90;;;;;;5072635;28;20119;-47
2022/09/27 05:57:00;;;;;;;4.65;1.70;;;9.40;99.90;;;;;;5093463;28;20508;-46
2022/09/27 05:59:43;;;;;;;5.32;2.35;;;9.60;99.90;;;;;;5091109;28;20048;-46
2022/09/27 06:02:31;;;;;;;3.40;2.42;;;9.50;99.90;;;;;;5096173;28;20047;-46
2022/09/27 06:05:16;;;;;;;8.38;2.78;;;9.50;99.90;;;;;;5108000;28;20404;-46
2022/09/27 06:08:11;;;;;;;7.80;3.22;;;9.50;99.90;;;;;;5111787;28;20062;-46
2022/09/27 06:10:44;;;;;;;4.20;2.53;;;9.50;99.90;;;;;;5087750;28;20519;-46
2022/09/27 06:13:14;;;;;;;6.75;3.03;;;9.50;99.90;;;;;;5083256;28;20042;-48
2022/09/27 06:15:45;;;;;;;4.45;2.80;;;9.60;99.90;;;;;;5086424;28;20094;-48
2022/09/27 06:18:16;;;;;;;6.03;3.28;;;9.60;99.90;;;;;;5083410;28;20150;-46
2022/09/27 06:20:45;;;;;;;5.90;3.08;;;9.60;99.90;;;;;;5094455;28;20036;-46
2022/09/27 06:23:14;;;;;;;9.43;3.00;;;9.50;99.90;;;;;;5094306;28;20043;-46
2022/09/27 06:25:41;;;;;;;4.03;2.40;;;9.50;99.90;;;;;;5106373;28;20031;-46
2022/09/27 06:28:16;;;;;;;6.25;4.03;;;9.50;99.90;;;;;;5093136;27;20388;-46
2022/09/27 06:30:47;;;;;;;5.95;3.33;;;9.50;99.90;;;;;;5099997;28;20048;-46
2022/09/27 06:33:33;;;;;;;5.13;3.10;;;9.50;99.90;;;;;;5101434;28;20101;-47
2022/09/27 06:36:06;;;;;;;6.18;3.20;;;9.50;99.90;;;;;;5093766;28;20043;-46
2022/09/27 06:38:35;;;;;;;4.68;2.83;;;9.60;99.90;;;;;;5078283;28;20492;-46
2022/09/27 06:41:11;;;;;;;4.13;2.70;;;9.60;99.90;;;;;;5073711;28;20044;-46
2022/09/27 06:43:50;;;;;;;6.07;3.42;;;9.50;99.90;;;;;;5073374;28;20040;-46
2022/09/27 06:46:38;;;;;;;6.38;3.30;;;9.50;99.90;;;;;;5057987;27;20054;-46
2022/09/27 06:49:24;;;;;;;6.45;3.78;;;9.60;99.90;;;;;;5103570;27;20046;-46
2022/09/27 06:51:51;;;;;;;5.65;3.15;;;9.50;99.90;;;;;;5084596;28;20129;-46
2022/09/27 06:54:20;;;;;;;7.28;2.78;;;9.60;99.90;;;;;;5079258;28;20136;-47
2022/09/27 06:56:47;;;;;;;4.43;2.42;;;9.60;99.90;;;;;;5093162;28;20056;-46
2022/09/27 07:02:17;;;;;;;5.28;2.70;;;9.50;99.90;;;;;;5105977;28;20511;-46
2022/09/27 07:05:03;;;;;;;6.38;3.80;;;9.60;99.90;;;;;;5105295;28;20059;-46
2022/09/27 07:07:47;;;;;;;5.38;2.85;;;9.50;99.90;;;;;;5111791;28;20511;-47
2022/09/27 07:10:16;;;;;;;8.20;4.22;;;9.60;99.90;;;;;;5092677;28;20046;-47
2022/09/27 07:12:47;;;;;;;7.60;4.00;;;9.60;99.90;;;;;;5089315;28;20519;-47
2022/09/27 07:15:15;;;;;;;6.90;3.92;;;9.70;99.90;;;;;;5092579;28;20044;-47
2022/09/27 07:17:42;;;;;;;7.10;4.00;;;9.80;99.90;;;;;;5093398;28;20047;-46
2022/09/27 07:20:08;;;;;;;5.80;3.95;;;9.90;99.90;;;;;;5106983;28;20052;-46
2022/09/27 07:22:44;;;;;;;7.90;4.03;;;9.80;99.90;;;;;;5101543;28;20552;-46
2022/09/27 07:25:12;;;;;;;6.78;5.07;;;9.90;99.90;;;;;;5089640;28;20047;-46
2022/09/27 07:27:40;;;;;;;11.50;5.78;;;10.00;99.90;;;;;;5111187;28;20031;-47
2022/09/27 07:30:10;;;;;;;13.57;4.20;;;10.10;99.90;;;;;;5093330;28;20411;-46
2022/09/27 07:32:37;;;;;;;6.30;3.55;;;10.10;99.90;;;;;;5093404;28;20109;-47
2022/09/27 07:35:09;;;;;;;7.35;3.63;;;10.10;99.90;;;;;;5082162;28;20101;-46
2022/09/27 07:37:37;;;;;;;6.38;3.33;;;10.10;99.90;;;;;;5091543;28;20108;-46
2022/09/27 07:40:08;;;;;;;8.48;4.13;;;10.20;99.90;;;;;;5092999;28;20516;-46
2022/09/27 07:42:40;;;;;;;5.18;3.38;;;10.20;99.90;;;;;;5083560;28;20140;-46
2022/09/27 07:45:08;;;;;;;11.20;4.70;;;10.20;99.90;;;;;;5092750;28;20047;-46
2022/09/27 07:48:11;;;;;;;7.78;3.75;;;10.30;99.90;;;;;;5103203;28;20138;-46
2022/09/27 07:50:54;;;;;;;5.40;3.20;;;10.30;99.90;;;;;;5090751;28;20494;-46
2022/09/27 07:53:50;;;;;;;7.80;3.67;;;10.40;99.90;;;;;;5092914;28;20140;-46
2022/09/27 07:56:50;;;;;;;5.70;2.97;;;10.50;99.90;;;;;;5092516;28;20120;-48
2022/09/27 07:59:19;;;;;;;5.28;3.63;;;10.70;99.90;;;;;;5062040;28;20485;-49
2022/09/27 08:01:46;;;;;;;5.15;2.88;;;10.90;99.90;;;;;;5069019;28;20131;-51
2022/09/27 08:04:13;;;;;;;7.68;3.75;;;11.00;99.90;;;;;;5063869;28;20059;-49
2022/09/27 08:06:41;;;;;;;12.98;3.90;;;11.10;99.90;;;;;;5072164;28;20036;-52
2022/09/27 08:09:08;;;;;;;6.60;3.78;;;11.20;99.90;;;;;;5109899;28;20092;-49
2022/09/27 08:11:37;;;;;;;6.13;3.72;;;11.10;99.90;;;;;;5072244;28;20500;-50
2022/09/27 08:14:03;;;;;;;5.55;3.72;;;11.20;99.90;;;;;;5072411;28;20060;-49
2022/09/27 08:16:33;;;;;;;6.22;3.72;;;11.30;99.90;;;;;;5072715;28;20044;-50
2022/09/27 08:19:12;;;;;;;4.82;2.67;;;11.40;99.90;;;;;;5089913;28;20048;-48
2022/09/27 08:21:43;;;;;;;5.18;3.08;;;11.30;99.90;;;;;;5072583;28;20059;-49
2022/09/27 08:24:16;;;;;;;6.32;3.05;;;11.40;99.90;;;;;;5070035;28;20040;-52
2022/09/27 08:27:01;;;;;;;5.85;3.30;;;11.50;99.90;;;;;;5068212;28;20048;-49
2022/09/27 08:29:44;;;;;;;5.30;3.15;;;11.30;99.90;;;;;;5082564;28;20044;-49
2022/09/27 08:32:11;;;;;;;;;;;11.30;99.90;;;;;;5085659;28;20044;-51
2022/09/27 08:34:38;;;;;;;6.28;2.88;;;11.40;99.90;;;;;;5075594;28;19928;-49
2022/09/27 08:37:05;;;;;;;7.40;3.00;;;11.40;99.90;;;;;;5094062;28;20404;-53
2022/09/27 08:39:32;;;;;;;5.18;3.33;;;11.40;99.90;;;;;;5074794;28;20051;-49
2022/09/27 08:42:24;;;;;;;9.25;3.80;;;11.40;99.90;;;;;;5076053;28;20043;-54
2022/09/27 08:45:13;;;;;;;5.55;3.63;;;11.50;99.90;;;;;;5070785;28;20040;-51
2022/09/27 08:47:46;;;;;;;10.90;3.80;;;11.50;99.90;;;;;;5075642;28;20040;-49
2022/09/27 08:50:35;;;;;;;8.65;4.07;;;11.50;99.90;;;;;;5072993;28;20489;-49
2022/09/27 08:53:32;;;;;;;7.68;3.90;;;11.50;99.90;;;;;;5075554;28;20131;-50
2022/09/27 08:56:03;;;;;;;4.88;3.28;;;11.50;99.90;;;;;;5076005;28;20055;-49
2022/09/27 08:58:52;;;;;;;7.45;3.22;;;11.50;99.90;;;;;;5073318;28;20567;-50
2022/09/27 09:01:23;;;;;;;9.43;3.65;;;11.50;99.90;;;;;;5066902;28;20045;-49
2022/09/27 09:04:24;;;;;;;6.35;4.43;;;11.50;99.90;;;;;;5090166;28;20447;-51
2022/09/27 09:07:21;;;;;;;5.93;3.95;;;11.50;99.90;;;;;;5075453;28;20059;-51
2022/09/27 09:12:45;;;;;;;7.22;4.30;;;11.60;99.90;;;;;;5074174;28;20048;-50
2022/09/27 09:13:20;;;;;;;5.70;3.90;;;11.70;99.90;;;;;;5075193;28;20048;-50
2022/09/27 09:16:06;;;;;;;5.93;4.03;;;11.80;99.90;;;;;;5074958;28;20055;-49
2022/09/27 09:19:10;;;;;;;6.45;3.92;;;11.90;99.90;;;;;;5075376;28;20528;-50
2022/09/27 09:22:07;;;;;;;7.32;3.90;;;11.80;99.90;;;;;;5072850;28;20072;-52
2022/09/27 09:24:34;;;;;;;7.07;4.90;;;11.80;99.90;;;;;;5074549;28;20097;-51
2022/09/27 09:27:15;;;;;;;5.88;4.30;;;11.80;99.90;;;;;;5091773;28;20166;-52
2022/09/27 09:30:01;;;;;;;5.90;4.43;;;11.80;99.90;;;;;;5088421;28;20454;-53
2022/09/27 09:32:54;;;;;;;8.85;4.20;;;11.80;99.90;;;;;;5095420;28;20087;-49
2022/09/27 09:35:34;;;;;;;5.90;4.30;;;11.80;99.90;;;;;;5081485;28;20090;-50
2022/09/27 09:38:23;;;;;;;8.00;4.13;;;11.80;99.90;;;;;;5074506;28;20047;-50
2022/09/27 09:41:06;;;;;;;6.07;4.30;;;11.90;99.90;;;;;;5074532;28;20044;-53
2022/09/27 09:44:02;;;;;;;6.68;4.20;;;11.80;99.90;;;;;;5073875;28;20039;-51
2022/09/27 09:46:37;;;;;;;6.53;3.50;;;11.80;99.90;;;;;;5074871;28;20048;-51
2022/09/27 09:49:18;;;;;;;4.93;3.03;;;11.70;99.90;;;;;;5074976;28;20068;-49
2022/09/27 09:51:51;;;;;;;7.68;2.97;;;11.70;99.90;;;;;;5073529;28;20052;-52
2022/09/27 09:54:24;;;;;;;4.07;2.72;;;11.70;99.90;;;;;;5073984;28;20048;-49
2022/09/27 09:57:35;;;;;;;5.97;2.47;;;11.60;99.90;;;;;;5074402;28;20048;-49
2022/09/27 10:00:11;;;;;;;5.25;3.08;;;11.60;99.90;;;;;;5069365;28;20044;-50
2022/09/27 10:02:43;;;;;;;8.60;3.00;;;11.80;99.90;;;;;;5085468;28;20062;-51
2022/09/27 10:05:20;;;;;;;8.15;3.00;;;12.00;99.90;;;;;;5067530;28;20044;-50
2022/09/27 10:07:53;;;;;;;2.97;1.48;;;12.20;99.90;;;;;;5074145;28;20115;-50
2022/09/27 10:10:21;;;;;;;2.55;1.58;;;12.30;99.90;;;;;;5073494;28;20044;-49
2022/09/27 10:12:55;;;;;;;7.68;1.90;;;12.30;99.90;;;;;;5092246;28;20067;-53
2022/09/27 10:15:29;;;;;;;3.55;1.38;;;12.40;99.90;;;;;;5071306;28;20389;-50
2022/09/27 10:17:58;;;;;;;2.03;1.00;;;12.30;99.90;;;;;;5074045;28;20048;-50
2022/09/27 10:20:31;;;;;;;4.90;0.80;;;12.30;99.90;;;;;;5092720;28;20488;-50
2022/09/27 10:23:20;;;;;;;1.65;0.73;;;12.20;99.90;;;;;;5073286;28;20576;-48
2022/09/27 10:26:17;;;;;;;1.23;0.70;;;12.20;99.90;;;;;;5087951;28;20090;-49
2022/09/27 10:28:49;;;;;;;0.60;0.50;;;12.20;99.90;;;;;;5073240;28;20037;-48
2022/09/27 10:31:22;;;;;;;3.80;0.70;;;12.20;99.90;;;;;;5068710;28;20048;-48
2022/09/27 10:34:04;;;;;;;3.00;0.60;;;12.50;99.90;;;;;;5073268;28;20055;-48
2022/09/27 10:36:37;;;;;;;1.92;0.40;;;12.70;99.90;;;;;;5073468;28;20059;-50
2022/09/27 10:39:05;;;;;;;1.55;0.50;;;12.80;99.90;;;;;;5072851;28;20122;-48
2022/09/27 10:41:40;;;;;;;0.88;0.30;;;13.00;99.90;;;;;;5072303;28;20139;-49
2022/09/27 10:44:27;;;;;;;0.70;0.43;;;13.10;99.90;;;;;;5073199;28;20044;-49
2022/09/27 10:47:24;;;;;;;1.95;0.40;;;13.10;99.90;;;;;;5086510;28;20125;-51
2022/09/27 10:50:06;;;;;;;1.30;0.30;;;13.20;99.90;;;;;;5073802;28;20047;-48
2022/09/27 10:53:19;;;;;;;2.55;0.38;;;13.10;99.90;;;;;;5070642;28;20051;-48
2022/09/27 10:55:55;;;;;;;0.35;0.35;;;12.70;99.90;;;;;;5071245;28;20051;-49
2022/09/27 10:58:30;;;;;;;;;;;12.50;99.90;;;;;;5073447;28;20131;-48
2022/09/27 11:01:11;;;;;;;0.80;0.40;;;12.30;99.90;;;;;;5073598;28;19924;-48
2022/09/27 11:04:01;;;;;;;1.95;0.30;;;12.20;99.90;;;;;;5064751;28;20127;-48
2022/09/27 11:06:36;;;;;;;1.10;0.30;;;12.10;99.90;;;;;;5080050;28;20043;-48
2022/09/27 11:09:25;;;;;;;1.98;0.10;;;12.00;99.90;;;;;;5073172;28;20222;-49
2022/09/27 11:12:14;;;;;;;0.30;0.20;;;11.90;99.90;;;;;;5073057;28;20045;-48
2022/09/27 11:14:59;;;;;;;1.23;0.20;;;11.80;99.90;;;;;;5070883;28;20044;-48
2022/09/27 11:17:49;;;;;;;0.52;0.30;;;11.90;99.90;;;;;;5073267;28;20044;-51
2022/09/27 11:20:29;;;;;;;0.95;0.20;;;11.90;99.90;;;;;;5091454;28;20123;-48
2022/09/27 11:23:19;;;;;;;1.85;0.38;;;11.90;99.90;;;;;;5089873;28;20067;-50
2022/09/27 11:26:15;;;;;;;1.67;0.28;;;11.80;99.90;;;;;;5072837;28;20082;-48
2022/09/27 11:29:14;;;;;;;0.20;0.00;;;11.70;99.90;;;;;;5073036;28;20412;-48
2022/09/27 11:32:21;;;;;;;2.28;0.15;;;11.50;99.90;;;;;;5072675;28;20052;-49
2022/09/27 11:34:57;;;;;;;0.40;0.13;;;11.40;99.90;;;;;;5052474;28;20041;-48
2022/09/27 11:37:33;;;;;;;1.15;0.10;;;11.40;99.90;;;;;;5055913;28;20044;-49
2022/09/27 11:40:24;;;;;;;0.10;0.10;;;11.20;99.90;;;;;;5071327;28;20048;-48
2022/09/27 11:43:33;;;;;;;0.70;0.20;;;11.10;99.90;;;;;;5073194;28;20042;-48
2022/09/27 11:46:17;;;;;;;0.03;0.00;;;11.00;99.90;;;;;;5067206;28;20051;-48
2022/09/27 11:49:14;;;;;;;0.35;0.10;;;11.00;99.90;;;;;;5071189;28;20047;-49
2022/09/27 11:52:18;;;;;;;0.25;0.00;;;11.00;99.90;;;;;;5073378;28;20054;-51
2022/09/27 11:54:55;;;;;;;0.47;0.08;;;11.10;99.90;;;;;;5057317;28;20093;-48
2022/09/27 11:57:42;;;;;;;0.00;0.00;;;11.20;99.90;;;;;;5072745;28;20089;-49
2022/09/27 12:00:20;;;;;;;0.05;0.05;;;11.30;99.90;;;;;;5072952;28;20047;-49
2022/09/27 12:03:44;;;;;;;0.00;0.00;;;11.50;99.90;;;;;;5078704;28;20048;-49
2022/09/27 12:06:30;;;;;;;0.38;0.20;;;11.90;99.90;;;;;;5073925;28;20105;-49
2022/09/27 12:09:06;;;;;;;2.50;0.10;;;12.10;99.90;;;;;;5076290;28;20492;-49
2022/09/27 12:12:03;;;;;;;0.30;0.10;;;12.30;99.90;;;;;;5075571;28;20036;-50
2022/09/27 12:14:41;;;;;;;1.25;0.20;;;12.50;99.90;;;;;;5075567;28;20389;-49
2022/09/27 12:17:20;;;;;;;0.10;0.10;;;12.90;99.90;;;;;;5076622;28;20044;-49
2022/09/27 12:19:53;;;;;;;0.60;0.20;;;13.30;99.90;;;;;;5072920;28;20044;-49
2022/09/27 12:22:39;;;;;;;0.30;0.10;;;13.40;99.90;;;;;;5076556;28;20070;-49
2022/09/27 12:25:36;;;;;;;0.47;0.35;;;13.10;99.90;;;;;;5075907;28;20134;-48
2022/09/27 12:28:38;;;;;;;0.20;0.20;;;13.00;99.90;;;;;;5074469;28;20050;-49
2022/09/27 12:31:15;;;;;;;0.22;0.20;;;12.90;99.90;;;;;;5076207;28;20040;-49
2022/09/27 12:34:19;;;;;;;0.30;0.20;;;13.10;99.90;;;;;;5061020;28;20052;-49
2022/09/27 12:36:57;;;;;;;2.25;0.25;;;13.30;99.90;;;;;;5073310;28;20527;-49
2022/09/27 12:39:27;;;;;;;0.20;0.10;;;13.70;99.90;;;;;;5078201;28;20546;-49
2022/09/27 12:42:15;;;;;;;0.25;0.15;;;13.80;99.90;;;;;;5087602;28;20140;-49
2022/09/27 12:44:45;;;;;;;0.40;0.25;;;13.60;99.90;;;;;;5070537;28;20044;-48
2022/09/27 12:47:26;;;;;;;0.52;0.30;;;13.60;99.90;;;;;;5076145;28;20601;-49
2022/09/27 12:50:24;;;;;;;2.28;0.25;;;13.70;99.90;;;;;;5075783;28;20044;-48
2022/09/27 12:52:56;;;;;;;0.28;0.28;;;13.90;99.90;;;;;;5070172;28;20044;-49
2022/09/27 12:55:29;;;;;;;0.80;0.10;;;14.10;99.90;;;;;;5075345;28;20051;-49
2022/09/27 12:58:33;;;;;;;0.20;0.20;;;13.90;99.90;;;;;;5075833;28;20047;-49
2022/09/27 13:01:37;;;;;;;0.55;0.28;;;14.10;99.90;;;;;;5071372;28;20047;-48
2022/09/27 13:04:26;;;;;;;1.65;0.10;;;14.30;99.90;;;;;;5072947;28;20037;-48
2022/09/27 13:07:06;;;;;;;0.57;0.20;;;14.20;99.90;;;;;;5064436;28;20040;-48
2022/09/27 13:09:59;;;;;;;1.08;0.30;;;13.90;99.90;;;;;;5079891;28;20492;-48
2022/09/27 13:12:31;;;;;;;0.73;0.17;;;13.70;99.90;;;;;;5089622;28;20044;-49
2022/09/27 13:15:22;;;;;;;0.10;0.10;;;13.90;99.90;;;;;;5074725;28;20051;-48
2022/09/27 13:17:55;;;;;;;0.38;0.10;;;14.00;99.90;;;;;;5073786;28;20044;-48
2022/09/27 13:20:41;;;;;;;1.00;0.10;;;13.90;99.90;;;;;;5075377;28;20052;-48
2022/09/27 13:23:33;;;;;;;1.85;0.30;;;13.80;99.90;;;;;;5072458;28;20040;-48
2022/09/27 13:26:19;;;;;;;0.68;0.20;;;13.80;99.90;;;;;;5074842;28;20097;-49
2022/09/27 13:28:53;;;;;;;2.55;0.30;;;13.90;99.90;;;;;;5075424;28;20465;-49
2022/09/27 13:31:54;;;;;;;3.30;0.20;;;13.90;99.90;;;;;;5071924;28;20097;-48
2022/09/27 13:34:49;;;;;;;0.47;0.17;;;14.40;99.90;;;;;;5065989;28;20504;-48
2022/09/27 13:37:35;;;;;;;0.10;0.10;;;14.70;99.90;;;;;;5074834;28;20048;-49
2022/09/27 13:40:23;;;;;;;1.15;0.30;;;14.70;99.90;;;;;;5073217;28;20044;-48
2022/09/27 13:43:42;;;;;;;0.10;0.10;;;14.60;99.90;;;;;;5064235;28;20401;-49
2022/09/27 13:46:26;;;;;;;0.10;0.10;;;14.60;99.90;;;;;;5056620;28;20113;-49
2022/09/27 13:49:13;;;;;;;0.00;0.00;;;14.70;99.90;;;;;;5074313;28;20043;-48
2022/09/27 13:52:20;;;;;;;2.10;0.30;;;14.70;99.90;;;;;;5054672;28;20451;-48
2022/09/27 13:55:05;;;;;;;0.10;0.10;;;14.60;99.90;;;;;;5054610;28;20044;-49
2022/09/27 13:58:02;;;;;;;0.10;0.10;;;14.60;99.90;;;;;;5105726;22;20055;-46
2022/09/27 14:00:41;;;;;;;0.25;0.20;;;14.70;99.90;;;;;;5075034;28;20051;-47
2022/09/27 14:03:11;;;;;;;0.65;0.20;;;14.90;99.90;;;;;;5091131;28;20040;-47